Leesburg, IN (46538)

4:39 PM EDT on August 29, 2015 (GMT -0400)
Clunette Elevator | | Change Station
CLOSE
Current Station
Personal Weather Station
Location: Leesburg, IN
Elevation: 852 ft
Nearby Weather Stations

Elev 852 ft 41.32 °N, 85.93 °W | Updated 4 minutes ago

Rain
Rain
71.5 °F
Feels Like 71.5 °F
N
1.0
Wind Variable Wind from NE
Gusts 3.0 mph

Today
High -- | Low -- °F
--% Chance of Precip.
Yesterday
High -- | Low -- °F
Precip. -- in
7:06 AM 8:21 PM
Full, 100% visible
Pressure 30.05 in
Visibility 5.0 miles
Clouds Scattered Clouds 2700 ft
Scattered Clouds 4500 ft
Overcast 5000 ft
Dew Point 70 °F
Humidity 95%
Rainfall 0.05 in
Snow Depth Not available.
UV 2 out of 12
Pollen 9.30 out of 12
Air Quality Not available.
Flu Activity Not available.
METAR KASW 292035Z AUTO 02003KT 5SM RA SCT027 SCT045 OVC050 22/21 A3005 RMK AO2 P0002
Pressure 30.05 in
Visibility 5.0 miles
Clouds Scattered Clouds 2700 ft
Scattered Clouds 4500 ft
Overcast 5000 ft
Dew Point 70 °F
Humidity 95%
Rainfall 0.05 in
Snow Depth Not available.
UV 2 out of 12
Pollen 9.30 out of 12
Air Quality Not available.
Flu Activity Not available.
METAR KASW 292035Z AUTO 02003KT 5SM RA SCT027 SCT045 OVC050 22/21 A3005 RMK AO2 P0002

10-Day Weather Forecast

×

Almanac

Astronomy

Aug. 29, 2015 Rise Set
Actual Time
Civil Twilight
Nautical Twilight
Astronomical Twilight
Moon
Length of Visible Light
Length of Day
Tomorrow will be .
, % of the Moon is Illuminated

Today's Extremes

State Highs State Lows

Community

WunderPhotos

Upload Photos

1,850,793 photos uploaded!

WunderBlogs® & News

Nearby

Air Quality

  Air Quality AQ Index Pollutant
Not available.

Snow Depth

Station Depth Elevation

Earthquake Activity

City Distance Mag. Time & Date
Minimum magnitude displayed is 2.5.

Coastal Water Temperatures

Place Temperature

Stations

Nearby Weather Stations

Station Location Temp. Windchill Dew Point Humidity Wind Precip. Elev Updated Type